Time;durP1;ratioP1;P1;durP2;ratioP2;P2;SDS_P1;SDS_P2;PMS_P1;PMS_P2;Temp;Humidity;BMP_temperature;BMP_pressure;BME280_temperature;BME280_humidity;BME280_pressure;Samples;Min_cycle;Max_cycle;Signal;HPM_P1;HPM_P2
2022/01/26 00:07:29;;;;;;;37.40;17.50;;;;;;;-8.44;51.68;101146.01;117100;1182;23452;-49
2022/01/26 00:09:58;;;;;;;33.70;17.60;;;;;;;-8.46;51.85;101139.05;117079;1186;23548;-49
2022/01/26 00:12:26;;;;;;;29.90;16.10;;;;;;;-8.35;51.93;101136.63;117085;1179;21916;-63
2022/01/26 00:14:55;;;;;;;39.90;16.80;;;;;;;-8.24;51.95;101143.92;117096;1186;23438;-50
2022/01/26 00:17:23;;;;;;;37.00;17.10;;;;;;;-8.20;51.71;101139.13;117287;1183;23587;-49
2022/01/26 00:20:04;;;;;;;36.30;16.70;;;;;;;-8.17;51.69;101134.39;117082;1184;21862;-49
2022/01/26 00:38:40;;;;;;;35.50;17.40;;;;;;;-7.61;52.11;101117.36;117252;1183;21843;-49
2022/01/26 00:41:13;;;;;;;33.30;15.90;;;;;;;-7.53;52.18;101116.27;117252;1181;22801;-48
2022/01/26 00:43:50;;;;;;;33.00;15.70;;;;;;;-7.47;52.09;101118.05;117077;1182;21867;-49
2022/01/26 00:46:19;;;;;;;28.30;15.00;;;;;;;-7.39;52.16;101116.89;117143;1188;23651;-70
2022/01/26 00:48:49;;;;;;;29.80;13.70;;;;;;;-7.32;52.19;101112.10;117270;1184;21891;-49
2022/01/26 00:51:20;;;;;;;33.90;16.10;;;;;;;-7.22;52.21;101106.84;117188;1186;22505;-70
2022/01/26 00:53:58;;;;;;;36.60;16.20;;;;;;;-7.12;52.11;101103.47;116972;1189;23457;-68
2022/01/26 00:56:27;;;;;;;34.60;17.70;;;;;;;-7.05;52.37;101096.81;117102;1187;21866;-68
2022/01/26 00:58:56;;;;;;;29.50;16.00;;;;;;;-7.02;52.12;101095.96;117045;1178;24176;-69
2022/01/26 01:01:25;;;;;;;31.00;15.10;;;;;;;-7.01;52.27;101086.81;117089;1184;23452;-70
2022/01/26 01:03:53;;;;;;;33.80;16.30;;;;;;;-6.93;52.29;101084.96;117091;1186;24168;-69
2022/01/26 01:06:28;;;;;;;35.30;17.80;;;;;;;-6.88;52.31;101084.11;116936;1188;21962;-69
2022/01/26 01:08:58;;;;;;;34.70;17.20;;;;;;;-6.82;52.45;101073.95;117097;1183;21897;-48
2022/01/26 01:11:27;;;;;;;40.40;19.90;;;;;;;-6.74;52.30;101071.94;117033;1187;21882;-47
2022/01/26 01:13:56;;;;;;;36.30;18.40;;;;;;;-6.67;52.41;101065.91;117160;1186;21876;-69
2022/01/26 01:16:25;;;;;;;40.40;19.20;;;;;;;-6.59;52.66;101066.48;117074;1178;21871;-69
2022/01/26 01:19:02;;;;;;;40.40;21.20;;;;;;;-6.50;52.73;101069.10;117056;1182;23216;-70
2022/01/26 01:27:27;;;;;;;41.70;21.50;;;;;;;-6.19;52.80;101075.60;117004;1187;21868;-48
2022/01/26 01:30:11;;;;;;;35.50;18.70;;;;;;;-6.06;52.72;101075.29;116971;1179;22003;-69
2022/01/26 01:32:51;;;;;;;39.40;19.80;;;;;;;-5.96;52.81;101065.98;117083;1186;22867;-48
2022/01/26 01:35:19;;;;;;;;;;;;;;;-5.88;52.60;101063.76;117100;1183;23676;-69
2022/01/26 01:37:48;;;;;;;39.00;18.80;;;;;;;-5.76;52.68;101068.29;117222;1178;21857;-69
2022/01/26 01:40:16;;;;;;;38.10;19.50;;;;;;;-5.65;52.76;101062.33;117092;1186;24173;-69
2022/01/26 01:42:45;;;;;;;40.30;19.20;;;;;;;-5.59;52.69;101058.06;117083;1186;21890;-48
2022/01/26 01:45:14;;;;;;;36.30;18.50;;;;;;;-5.53;52.78;101053.48;116968;1182;23064;-47
2022/01/26 01:47:47;;;;;;;38.10;18.40;;;;;;;-5.41;52.81;101054.09;117037;1186;21903;-69
2022/01/26 01:50:15;;;;;;;44.30;22.30;;;;;;;-5.31;52.81;101050.44;117250;1184;23491;-69
2022/01/26 01:52:44;;;;;;;37.30;19.00;;;;;;;-5.24;52.58;101051.72;117023;1187;23961;-48
2022/01/26 01:55:12;;;;;;;30.70;16.90;;;;;;;-5.18;52.74;101055.20;117133;1178;23474;-48
2022/01/26 01:57:40;;;;;;;32.80;17.40;;;;;;;-5.12;52.64;101055.87;117286;1182;21902;-64
2022/01/26 02:00:10;;;;;;;35.00;19.40;;;;;;;-5.09;52.80;101056.44;117303;1178;22926;-48
2022/01/26 02:02:38;;;;;;;31.00;16.70;;;;;;;-5.09;52.83;101057.09;117072;1186;22929;-69
2022/01/26 02:05:08;;;;;;;38.40;19.40;;;;;;;-5.10;52.47;101046.59;117270;1183;22925;-69
2022/01/26 02:07:36;;;;;;;34.30;17.20;;;;;;;-5.13;52.62;101048.79;117091;1184;23553;-69
2022/01/26 02:10:06;;;;;;;33.50;17.90;;;;;;;-5.16;52.58;101047.25;117271;1184;21876;-48
2022/01/26 02:12:37;;;;;;;47.00;21.20;;;;;;;-5.19;52.55;101044.66;117281;1180;22942;-68
2022/01/26 02:15:13;;;;;;;67.70;26.60;;;;;;;-5.24;52.44;101043.36;117269;1177;23651;-48
2022/01/26 02:56:42;;;;;;;38.10;18.40;;;;;;;-5.55;52.40;101036.80;117289;1183;22949;-69
2022/01/26 03:02:01;;;;;;;42.10;20.40;;;;;;;-5.42;52.54;101036.23;117272;1182;21895;-48
2022/01/26 03:04:41;;;;;;;40.90;19.80;;;;;;;-5.39;52.38;101029.73;117190;1185;22505;-49
2022/01/26 03:07:20;;;;;;;34.20;18.10;;;;;;;-5.39;52.59;101019.15;117306;1185;21865;-69
2022/01/26 03:09:59;;;;;;;35.20;18.20;;;;;;;-5.39;52.46;101013.48;117322;1185;22626;-56
2022/01/26 03:12:41;;;;;;;32.30;16.90;;;;;;;-5.43;52.43;101007.92;117058;1186;21856;-69
2022/01/26 03:15:18;;;;;;;32.50;16.40;;;;;;;-5.48;52.63;101001.13;117040;1187;23447;-70
2022/01/26 03:20:16;;;;;;;41.20;19.30;;;;;;;-5.75;52.92;100994.83;117055;1187;22006;-48
2022/01/26 03:28:25;;;;;;;48.60;21.70;;;;;;;-5.77;53.08;100986.34;117197;1184;21858;-48
2022/01/26 03:39:16;;;;;;;33.70;17.90;;;;;;;-5.63;53.14;100994.02;116958;1188;22800;-48
2022/01/26 03:44:14;;;;;;;37.90;19.30;;;;;;;-5.59;53.36;100991.59;116731;1181;21902;-70
2022/01/26 03:46:43;;;;;;;40.00;20.70;;;;;;;-5.59;53.13;100986.62;116738;1181;23637;-49
2022/01/26 03:49:11;;;;;;;37.00;20.00;;;;;;;-5.56;53.37;100980.11;116881;1189;22928;-49
2022/01/26 03:51:40;;;;;;;42.50;22.30;;;;;;;-5.54;53.38;100979.05;116976;1188;24305;-49
2022/01/26 03:54:09;;;;;;;36.80;18.40;;;;;;;-5.53;53.23;100979.13;116899;1188;21905;-69
2022/01/26 03:56:37;;;;;;;32.00;17.10;;;;;;;-5.48;53.37;100978.00;116770;1188;21870;-69
2022/01/26 03:59:06;;;;;;;38.60;20.10;;;;;;;-5.43;53.44;100980.44;116980;1188;23456;-48
2022/01/26 04:01:35;;;;;;;45.90;21.60;;;;;;;-5.39;53.44;100974.66;116824;1188;23472;-49
2022/01/26 04:04:04;;;;;;;36.30;17.10;;;;;;;-5.37;53.47;100978.55;116899;1185;23551;-69
2022/01/26 04:06:33;;;;;;;42.10;21.00;;;;;;;-5.36;53.44;100979.13;116956;1185;21835;-48
2022/01/26 04:09:04;;;;;;;43.00;21.90;;;;;;;-5.35;53.54;100978.67;117041;1186;23560;-49
2022/01/26 04:11:42;;;;;;;38.70;19.90;;;;;;;-5.31;53.55;100981.48;117134;1180;22884;-49
2022/01/26 04:14:16;;;;;;;38.80;18.90;;;;;;;-5.27;53.54;100979.81;117080;1182;23538;-70
2022/01/26 04:16:47;;;;;;;36.80;18.20;;;;;;;-5.24;53.51;100979.35;117146;1184;23544;-49
2022/01/26 04:19:17;;;;;;;35.30;17.80;;;;;;;-5.19;53.84;100974.86;117127;1186;21861;-49
2022/01/26 04:26:59;;;;;;;31.10;18.00;;;;;;;-5.06;53.67;100974.58;117060;1184;22344;-71
2022/01/26 04:29:30;;;;;;;33.40;17.40;;;;;;;-4.99;53.83;100975.03;117137;1182;23657;-49
2022/01/26 04:32:00;;;;;;;32.80;16.80;;;;;;;-4.95;53.67;100963.30;117132;1181;23442;-70
2022/01/26 04:34:29;;;;;;;;;;;;;;;-4.92;53.70;100966.03;117124;1178;21845;-70
2022/01/26 04:39:35;;;;;;;36.80;18.20;;;;;;;-4.89;53.52;100961.92;117205;1182;22913;-70
2022/01/26 04:42:13;;;;;;;34.10;17.80;;;;;;;-4.89;53.71;100961.39;117198;1183;23690;-70
2022/01/26 04:44:55;;;;;;;37.80;19.50;;;;;;;-4.89;53.61;100958.29;117218;1181;21857;-70
2022/01/26 04:47:24;;;;;;;36.90;19.30;;;;;;;-4.87;53.64;100954.31;117170;1184;23478;-50
2022/01/26 04:49:52;;;;;;;52.50;22.90;;;;;;;-4.84;53.70;100955.36;117076;1186;21860;-49
2022/01/26 04:52:21;;;;;;;47.70;22.00;;;;;;;-4.84;53.60;100954.65;117144;1181;21897;-49
2022/01/26 04:54:49;;;;;;;46.20;23.30;;;;;;;-4.84;53.65;100949.03;117096;1186;21848;-69
2022/01/26 04:57:19;;;;;;;49.20;21.80;;;;;;;-4.83;53.67;100939.29;117036;1187;22001;-49
2022/01/26 04:59:48;;;;;;;40.10;19.00;;;;;;;-4.80;53.61;100940.17;117086;1182;23571;-70
2022/01/26 05:02:16;;;;;;;42.00;20.60;;;;;;;-4.76;53.75;100941.95;117041;1185;22951;-70
2022/01/26 05:04:45;;;;;;;47.50;23.00;;;;;;;-4.72;53.67;100942.33;116995;1187;22863;-70
2022/01/26 05:07:14;;;;;;;45.50;21.40;;;;;;;-4.70;53.75;100942.16;117040;1186;21877;-49
2022/01/26 05:09:42;;;;;;;45.80;22.40;;;;;;;-4.64;53.82;100941.48;117083;1182;22413;-71
2022/01/26 05:12:12;;;;;;;39.30;19.90;;;;;;;-4.59;53.86;100940.17;117058;1186;22669;-71
2022/01/26 05:14:43;;;;;;;37.70;19.70;;;;;;;-4.56;53.83;100939.67;117000;1184;23017;-70
2022/01/26 05:17:13;;;;;;;42.80;22.90;;;;;;;-4.53;53.79;100938.84;117224;1182;24275;-52
2022/01/26 05:19:42;;;;;;;38.90;20.00;;;;;;;-4.49;53.77;100938.70;117306;1184;24225;-71
2022/01/26 05:22:11;;;;;;;43.90;21.40;;;;;;;-4.43;53.97;100936.63;116814;1187;21922;-70
2022/01/26 05:24:40;;;;;;;46.70;22.70;;;;;;;-4.36;53.87;100925.05;117065;1187;23482;-68
2022/01/26 05:27:08;;;;;;;45.80;22.10;;;;;;;-4.32;53.92;100927.52;117247;1178;21943;-50
2022/01/26 05:29:37;;;;;;;43.60;22.80;;;;;;;-4.27;53.86;100933.61;117091;1183;22630;-67
2022/01/26 05:32:06;;;;;;;48.80;23.40;;;;;;;-4.20;53.98;100934.38;117059;1187;23475;-67
2022/01/26 05:34:35;;;;;;;42.40;21.20;;;;;;;-4.13;53.90;100932.52;117058;1184;24062;-49
2022/01/26 05:37:04;;;;;;;42.20;21.10;;;;;;;-4.06;54.01;100930.00;117129;1179;22918;-50
2022/01/26 05:39:33;;;;;;;42.80;22.20;;;;;;;-3.96;54.06;100933.45;117258;1184;21886;-60
2022/01/26 05:42:04;;;;;;;44.50;24.40;;;;;;;-3.87;54.24;100932.03;117165;1179;23036;-68
2022/01/26 05:44:32;;;;;;;39.00;19.30;;;;;;;-3.84;54.01;100917.98;117185;1186;21855;-69
2022/01/26 05:47:01;;;;;;;39.90;22.50;;;;;;;-3.85;53.85;100915.67;117078;1188;21893;-48
2022/01/26 05:49:29;;;;;;;47.20;24.20;;;;;;;-3.86;53.88;100912.73;117211;1185;21961;-69
2022/01/26 05:51:58;;;;;;;39.00;20.30;;;;;;;-3.86;53.86;100908.06;117267;1185;23653;-69
2022/01/26 05:54:29;;;;;;;46.40;22.00;;;;;;;-3.85;53.83;100893.20;117301;1189;21847;-67
2022/01/26 05:56:57;;;;;;;44.80;22.80;;;;;;;-3.84;53.93;100897.75;117530;1185;23555;-68
2022/01/26 05:59:26;;;;;;;42.20;21.80;;;;;;;-3.83;53.82;100905.20;117382;1182;22750;-69
2022/01/26 06:01:56;;;;;;;51.30;25.40;;;;;;;-3.81;53.88;100902.73;117118;1188;21963;-49
2022/01/26 06:04:25;;;;;;;54.70;25.70;;;;;;;-3.77;54.05;100907.55;117273;1187;21856;-50
2022/01/26 06:06:57;;;;;;;49.40;23.30;;;;;;;-3.73;53.90;100904.35;117322;1185;22884;-50
2022/01/26 06:09:26;;;;;;;51.40;22.70;;;;;;;-3.70;54.06;100903.44;116988;1182;22949;-50
2022/01/26 06:11:55;;;;;;;41.80;21.60;;;;;;;-3.65;54.03;100901.67;117235;1186;23503;-50
2022/01/26 06:14:23;;;;;;;43.20;22.30;;;;;;;-3.57;54.15;100902.29;117160;1182;24206;-50
2022/01/26 06:16:52;;;;;;;40.20;20.20;;;;;;;-3.47;54.25;100896.60;117301;1184;23574;-69
2022/01/26 06:19:20;;;;;;;39.90;21.80;;;;;;;-3.40;54.19;100901.11;117325;1184;22834;-50
2022/01/26 06:21:48;;;;;;;42.60;22.00;;;;;;;-3.32;54.25;100896.89;117399;1180;24170;-50
2022/01/26 06:24:16;;;;;;;39.40;22.20;;;;;;;-3.23;54.38;100894.57;117388;1178;23408;-50
2022/01/26 06:26:45;;;;;;;38.50;20.50;;;;;;;-3.13;54.40;100895.61;117227;1186;23452;-50
2022/01/26 06:29:13;;;;;;;42.60;21.50;;;;;;;-3.06;54.25;100889.62;117338;1182;21859;-63
2022/01/26 06:31:43;;;;;;;35.50;19.30;;;;;;;-3.01;54.23;100891.08;117070;1179;23528;-50
2022/01/26 06:34:11;;;;;;;43.00;23.10;;;;;;;-2.99;54.35;100890.34;117293;1183;21889;-65
2022/01/26 06:36:43;;;;;;;35.10;18.40;;;;;;;-2.94;54.37;100885.77;117323;1185;21858;-66
2022/01/26 06:39:12;;;;;;;36.80;21.20;;;;;;;-2.82;54.45;100880.54;117215;1185;23455;-50
2022/01/26 06:41:48;;;;;;;48.50;24.70;;;;;;;-2.75;54.33;100881.05;117258;1184;23557;-49
2022/01/26 06:44:26;;;;;;;42.50;23.00;;;;;;;-2.71;54.35;100876.95;117242;1186;21895;-72
2022/01/26 06:47:14;;;;;;;44.10;22.40;;;;;;;-2.68;54.27;100874.02;117058;1187;21901;-50
2022/01/26 06:49:43;;;;;;;37.20;20.00;;;;;;;-2.66;54.34;100867.90;117395;1185;23474;-68
2022/01/26 06:52:10;;;;;;;41.70;23.60;;;;;;;-2.64;54.21;100868.15;117294;1185;21892;-72
2022/01/26 06:54:39;;;;;;;47.60;24.80;;;;;;;-2.64;54.41;100867.83;116979;1185;22008;-72
2022/01/26 06:57:07;;;;;;;42.20;23.00;;;;;;;-2.63;54.23;100868.02;117267;1185;24184;-70
2022/01/26 06:59:35;;;;;;;40.90;21.70;;;;;;;-2.63;54.34;100860.83;117168;1183;21896;-50
2022/01/26 07:02:04;;;;;;;46.90;24.40;;;;;;;-2.61;54.25;100863.50;117287;1185;23475;-71
2022/01/26 07:04:33;;;;;;;43.80;23.10;;;;;;;-2.60;54.34;100862.52;117364;1182;23462;-49
2022/01/26 07:07:01;;;;;;;42.30;23.60;;;;;;;-2.59;54.31;100863.26;117110;1186;23452;-50
2022/01/26 07:09:29;;;;;;;42.50;21.90;;;;;;;-2.56;54.36;100860.52;117285;1186;21914;-49
2022/01/26 07:11:58;;;;;;;42.70;23.70;;;;;;;-2.54;54.36;100858.38;117258;1182;22021;-51
2022/01/26 07:19:49;;;;;;;40.00;21.00;;;;;;;-2.48;54.48;100857.27;119347;1181;22185;-72
2022/01/26 07:22:48;;;;;;;46.90;26.00;;;;;;;-2.25;54.63;100854.21;119277;1183;21821;-70
2022/01/26 07:25:16;;;;;;;36.70;20.90;;;;;;;-2.15;54.58;100853.64;118738;1178;21854;-50
2022/01/26 07:27:45;;;;;;;36.20;20.80;;;;;;;-2.05;54.63;100857.39;117136;1186;23456;-71
2022/01/26 07:30:13;;;;;;;47.00;24.60;;;;;;;-1.95;54.70;100856.13;117307;1183;21846;-70
2022/01/26 07:32:41;;;;;;;41.20;23.70;;;;;;;-1.86;54.86;100852.25;117113;1185;23544;-51
2022/01/26 07:35:10;;;;;;;44.80;26.50;;;;;;;-1.77;54.76;100855.92;117082;1179;23588;-49
2022/01/26 07:37:39;;;;;;;44.10;24.40;;;;;;;-1.68;54.72;100851.32;117261;1185;23622;-48
2022/01/26 07:40:09;;;;;;;44.60;24.00;;;;;;;-1.60;54.53;100848.20;117314;1185;22686;-70
2022/01/26 07:42:37;;;;;;;47.60;26.80;;;;;;;-1.55;54.71;100848.46;117040;1188;21965;-53
2022/01/26 07:45:10;;;;;;;45.50;25.10;;;;;;;-1.53;54.77;100844.94;117275;1182;24717;-50
2022/01/26 07:47:38;;;;;;;46.70;26.20;;;;;;;-1.53;54.52;100843.23;117115;1185;24315;-72
2022/01/26 07:50:10;;;;;;;55.00;28.30;;;;;;;-1.51;54.56;100845.03;117251;1182;23453;-73
2022/01/26 07:52:41;;;;;;;44.70;25.10;;;;;;;-1.48;54.59;100846.16;117060;1188;21891;-51
2022/01/26 07:55:11;;;;;;;39.70;22.40;;;;;;;-1.46;54.56;100846.25;117123;1186;22474;-50
2022/01/26 07:57:40;;;;;;;46.00;25.80;;;;;;;-1.45;54.46;100847.88;117095;1188;21895;-72
2022/01/26 08:00:09;;;;;;;49.20;27.10;;;;;;;-1.41;54.60;100844.44;117250;1184;21847;-72
2022/01/26 08:02:39;;;;;;;49.40;26.90;;;;;;;-1.35;54.70;100849.17;117309;1186;23557;-50
2022/01/26 08:05:08;;;;;;;45.50;25.80;;;;;;;-1.31;54.62;100847.95;117278;1185;21905;-72
2022/01/26 08:07:36;;;;;;;44.50;25.70;;;;;;;-1.27;54.61;100849.65;117507;1184;22927;-72
2022/01/26 08:10:06;;;;;;;41.80;24.30;;;;;;;-1.22;54.71;100849.73;117317;1185;23468;-72
2022/01/26 08:12:36;;;;;;;46.80;27.30;;;;;;;-1.14;55.05;100851.44;117224;1186;21870;-71
2022/01/26 08:15:24;;;;;;;47.50;26.10;;;;;;;-1.03;55.15;100849.48;117298;1185;24184;-51
2022/01/26 08:17:52;;;;;;;40.80;24.10;;;;;;;-0.93;55.18;100850.61;117292;1179;23472;-71
2022/01/26 08:20:22;;;;;;;45.60;25.60;;;;;;;-0.83;54.81;100852.20;117257;1182;23478;-72
2022/01/26 08:22:51;;;;;;;45.60;25.20;;;;;;;-0.73;55.16;100851.91;117266;1184;23459;-51
2022/01/26 08:25:21;;;;;;;44.20;25.80;;;;;;;-0.63;55.08;100854.06;117065;1185;22928;-51
2022/01/26 08:28:19;;;;;;;41.60;24.10;;;;;;;-0.51;55.08;100850.05;117395;1185;22931;-51
2022/01/26 08:30:39;;;;;;;43.50;24.30;;;;;;;-0.36;54.91;100849.25;117430;1181;23525;-51
2022/01/26 08:33:07;;;;;;;42.70;23.90;;;;;;;-0.33;55.07;100850.25;117317;1185;21855;-51
2022/01/26 08:35:36;;;;;;;45.80;24.20;;;;;;;-0.27;54.85;100848.43;117293;1182;23465;-51
2022/01/26 08:38:04;;;;;;;41.70;24.70;;;;;;;-0.20;54.94;100850.41;117259;1186;21861;-51
2022/01/26 08:40:33;;;;;;;45.40;26.80;;;;;;;-0.13;55.06;100855.87;117380;1178;22613;-71
2022/01/26 08:43:02;;;;;;;53.90;30.70;;;;;;;-0.08;54.97;100857.77;117340;1185;21848;-51
2022/01/26 08:45:30;;;;;;;52.90;28.60;;;;;;;-0.05;55.01;100853.58;117310;1181;23395;-51
2022/01/26 08:47:59;;;;;;;49.40;29.10;;;;;;;-0.02;55.12;100852.16;117475;1185;23552;-68
2022/01/26 08:50:27;;;;;;;68.20;30.40;;;;;;;0.02;55.04;100848.30;117321;1185;23450;-53
2022/01/26 08:52:55;;;;;;;51.00;29.30;;;;;;;0.06;55.02;100848.29;117277;1185;21870;-52
2022/01/26 08:55:24;;;;;;;52.00;27.60;;;;;;;0.11;54.90;100845.55;117288;1185;22486;-53
2022/01/26 08:57:52;;;;;;;48.40;26.00;;;;;;;0.17;55.09;100847.52;117277;1186;21892;-53
2022/01/26 09:00:20;;;;;;;46.50;26.00;;;;;;;0.21;55.12;100842.48;117300;1183;23484;-69
2022/01/26 09:02:51;;;;;;;47.30;27.10;;;;;;;0.21;54.85;100842.66;117246;1185;23114;-71
2022/01/26 09:05:19;;;;;;;49.70;28.80;;;;;;;0.19;54.92;100839.30;117278;1186;22151;-51
2022/01/26 09:07:49;;;;;;;53.60;30.20;;;;;;;0.21;55.07;100837.12;117169;1186;23484;-73
2022/01/26 09:10:18;;;;;;;44.10;26.70;;;;;;;0.27;55.08;100835.78;117235;1186;21848;-51
2022/01/26 09:12:48;;;;;;;43.50;26.20;;;;;;;0.32;55.07;100829.90;117230;1186;23468;-52
2022/01/26 09:15:16;;;;;;;45.00;25.70;;;;;;;0.38;54.93;100828.59;117272;1182;22923;-74
2022/01/26 09:17:45;;;;;;;49.40;28.80;;;;;;;0.41;55.28;100824.23;117291;1184;21918;-51
2022/01/26 09:20:14;;;;;;;54.30;29.50;;;;;;;0.41;55.18;100823.36;117241;1186;22625;-51
2022/01/26 09:22:43;;;;;;;49.00;28.00;;;;;;;0.39;55.08;100824.16;117327;1182;21856;-52
2022/01/26 09:25:11;;;;;;;58.00;31.50;;;;;;;0.38;55.01;100819.11;117241;1179;21854;-51
2022/01/26 09:27:40;;;;;;;58.60;31.30;;;;;;;0.41;54.92;100818.18;117208;1185;23638;-52
2022/01/26 09:30:09;;;;;;;52.70;29.90;;;;;;;0.45;55.39;100818.65;117073;1178;21862;-51
2022/01/26 09:32:38;;;;;;;46.30;27.20;;;;;;;0.48;55.04;100817.02;117345;1182;22624;-74
2022/01/26 09:35:09;;;;;;;45.40;27.00;;;;;;;0.50;55.23;100810.02;117323;1185;21858;-51
2022/01/26 09:37:37;;;;;;;47.80;29.00;;;;;;;0.53;55.09;100807.70;117203;1182;21852;-72
2022/01/26 09:40:06;;;;;;;43.90;26.20;;;;;;;0.54;54.87;100806.19;117190;1176;21847;-71
2022/01/26 09:42:36;;;;;;;45.20;26.20;;;;;;;0.56;55.01;100800.73;117314;1185;24159;-51
2022/01/26 09:45:05;;;;;;;48.90;28.10;;;;;;;0.60;55.13;100802.24;117270;1179;23709;-71
2022/01/26 09:47:33;;;;;;;44.20;25.60;;;;;;;0.62;55.07;100799.56;117286;1178;22010;-71
2022/01/26 09:50:22;;;;;;;49.40;29.40;;;;;;;0.67;55.17;100792.83;117036;1184;21938;-72
2022/01/26 09:52:53;;;;;;;41.40;25.10;;;;;;;0.72;55.37;100794.20;116949;1187;22974;-52
2022/01/26 09:55:21;;;;;;;45.00;27.90;;;;;;;0.77;55.24;100796.80;117083;1187;22654;-70
2022/01/26 09:57:53;;;;;;;43.10;27.10;;;;;;;0.83;55.05;100793.22;117080;1184;21882;-52
2022/01/26 10:00:22;;;;;;;49.20;29.40;;;;;;;0.90;55.06;100793.95;117206;1186;21860;-53
2022/01/26 10:02:57;;;;;;;45.80;25.80;;;;;;;0.96;55.11;100793.12;117238;1186;21898;-71
2022/01/26 10:05:39;;;;;;;43.60;26.00;;;;;;;1.00;55.26;100795.85;117104;1186;21888;-67
2022/01/26 10:19:17;;;;;;;57.70;32.90;;;;;;;1.07;55.28;100779.15;116825;1187;23840;-53
2022/01/26 10:21:50;;;;;;;48.20;28.90;;;;;;;1.07;54.99;100776.54;117129;1186;23467;-71
2022/01/26 10:24:28;;;;;;;49.30;31.60;;;;;;;1.05;55.13;100777.01;117251;1184;23456;-52
2022/01/26 10:26:59;;;;;;;43.80;26.30;;;;;;;1.05;55.26;100775.44;117228;1186;23593;-72
2022/01/26 10:29:29;;;;;;;41.50;26.00;;;;;;;1.05;55.29;100774.39;117061;1187;22627;-53
2022/01/26 10:31:58;;;;;;;43.90;26.20;;;;;;;1.07;55.16;100771.52;117121;1186;22069;-71
2022/01/26 10:34:26;;;;;;;42.60;25.90;;;;;;;1.08;54.97;100771.05;117130;1179;21859;-52
2022/01/26 10:37:00;;;;;;;48.10;28.40;;;;;;;1.10;55.16;100765.94;116956;1187;21877;-71
2022/01/26 10:39:42;;;;;;;45.60;26.90;;;;;;;1.14;55.13;100767.77;117119;1187;22975;-70
2022/01/26 10:42:13;;;;;;;45.00;25.90;;;;;;;1.21;55.33;100767.64;117024;1183;23443;-70
2022/01/26 10:45:10;;;;;;;43.20;26.10;;;;;;;1.26;55.30;100767.66;117022;1187;21881;-71
2022/01/26 10:47:40;;;;;;;50.40;27.50;;;;;;;1.29;55.09;100768.98;117114;1186;22971;-52
2022/01/26 10:53:07;;;;;;;50.50;28.40;;;;;;;1.39;55.22;100768.88;117297;1183;23621;-52
2022/01/26 10:55:37;;;;;;;45.50;28.20;;;;;;;1.39;55.40;100766.52;117075;1188;21879;-70
2022/01/26 10:58:07;;;;;;;47.30;28.90;;;;;;;1.40;55.11;100761.67;117375;1185;23692;-70
2022/01/26 11:00:41;;;;;;;46.40;29.30;;;;;;;1.42;55.27;100764.32;117328;1182;22625;-70
2022/01/26 11:03:09;;;;;;;49.60;29.50;;;;;;;1.45;55.18;100769.63;117325;1183;22959;-50
2022/01/26 11:05:37;;;;;;;48.40;29.70;;;;;;;1.47;55.19;100764.51;117266;1186;21860;-52
2022/01/26 11:08:08;;;;;;;48.60;29.10;;;;;;;1.47;55.22;100762.27;117439;1185;23596;-69
2022/01/26 11:10:38;;;;;;;44.80;28.10;;;;;;;1.47;55.27;100762.23;117228;1186;21874;-66
2022/01/26 11:13:06;;;;;;;64.50;33.10;;;;;;;1.47;55.08;100749.77;117258;1177;24188;-69
2022/01/26 11:15:35;;;;;;;48.60;29.60;;;;;;;1.49;55.16;100742.58;117327;1186;23455;-68
2022/01/26 11:18:08;;;;;;;48.80;30.10;;;;;;;1.55;55.24;100747.09;117312;1179;21858;-68
2022/01/26 11:20:45;;;;;;;51.00;31.30;;;;;;;1.62;55.38;100751.98;117323;1185;21956;-68
2022/01/26 11:23:13;;;;;;;51.50;31.40;;;;;;;1.67;55.47;100745.36;117353;1185;21855;-51
2022/01/26 11:25:44;;;;;;;54.70;33.80;;;;;;;1.74;55.31;100745.57;117344;1185;24156;-68
2022/01/26 11:28:19;;;;;;;55.00;32.60;;;;;;;1.81;55.27;100745.95;117284;1183;24243;-68
2022/01/26 11:30:50;;;;;;;58.10;34.00;;;;;;;1.83;55.38;100747.73;117249;1185;23452;-53
2022/01/26 11:33:24;;;;;;;53.00;30.90;;;;;;;1.94;55.35;100742.34;117288;1182;23816;-68
2022/01/26 11:35:55;;;;;;;55.10;33.10;;;;;;;1.98;55.36;100735.35;117572;1186;21885;-52
2022/01/26 11:47:20;;;;;;;57.00;35.50;;;;;;;2.21;55.30;100735.31;117265;1185;22879;-53
2022/01/26 11:49:51;;;;;;;55.00;33.60;;;;;;;2.21;55.32;100732.02;117146;1182;22962;-68
2022/01/26 11:52:27;;;;;;;53.10;33.30;;;;;;;2.21;55.27;100731.48;117202;1186;21883;-53
2022/01/26 11:54:59;;;;;;;55.70;34.30;;;;;;;2.22;55.35;100724.95;117213;1185;23037;-68
2022/01/26 11:57:49;;;;;;;52.90;32.90;;;;;;;2.23;55.18;100723.60;117209;1186;21851;-51
2022/01/26 12:00:39;;;;;;;56.90;35.00;;;;;;;2.27;55.35;100727.49;117206;1186;21844;-68
2022/01/26 12:03:30;;;;;;;79.50;42.20;;;;;;;2.30;55.44;100723.42;117217;1183;21863;-52
2022/01/26 12:05:59;;;;;;;75.70;40.90;;;;;;;2.31;55.41;100718.42;117064;1186;21920;-67
2022/01/26 12:08:36;;;;;;;62.80;37.40;;;;;;;2.32;55.36;100720.19;117192;1182;21841;-52
2022/01/26 12:11:10;;;;;;;57.70;34.50;;;;;;;2.36;55.43;100724.98;117157;1185;22946;-53
2022/01/26 12:13:57;;;;;;;56.60;33.60;;;;;;;2.42;55.49;100727.39;116882;1187;21859;-68
2022/01/26 12:16:36;;;;;;;51.00;32.10;;;;;;;2.46;55.54;100732.86;116860;1189;21859;-68
2022/01/26 12:36:16;;;;;;;56.40;32.80;;;;;;;2.62;55.37;100720.30;117073;1187;24270;-52
2022/01/26 12:38:50;;;;;;;61.10;35.30;;;;;;;2.62;55.50;100720.64;117226;1176;21862;-52
2022/01/26 12:44:00;;;;;;;66.00;37.80;;;;;;;2.63;55.47;100715.11;117101;1186;21999;-52
2022/01/26 12:46:31;;;;;;;53.00;33.60;;;;;;;2.64;55.33;100719.63;117190;1188;21847;-52
2022/01/26 12:49:09;;;;;;;58.10;34.80;;;;;;;2.63;55.38;100721.54;117120;1185;23557;-68
2022/01/26 12:51:48;;;;;;;51.90;31.10;;;;;;;2.66;55.42;100722.45;117328;1183;21870;-69
2022/01/26 12:54:18;;;;;;;51.00;31.90;;;;;;;2.66;55.32;100725.23;117217;1185;24173;-52
2022/01/26 12:56:46;;;;;;;52.90;32.40;;;;;;;2.64;55.35;100729.34;117246;1176;21851;-53
2022/01/26 12:59:17;;;;;;;49.00;31.70;;;;;;;2.64;55.47;100728.13;117244;1186;21866;-70
2022/01/26 13:01:45;;;;;;;56.30;33.20;;;;;;;2.65;55.34;100723.30;117103;1184;22626;-53
2022/01/26 13:04:16;;;;;;;49.90;31.60;;;;;;;2.66;55.43;100722.98;117236;1185;22895;-53
2022/01/26 13:06:50;;;;;;;52.00;32.70;;;;;;;2.68;55.50;100725.45;117185;1185;23476;-54
2022/01/26 13:09:39;;;;;;;49.40;30.80;;;;;;;2.71;55.45;100725.02;117189;1179;23487;-68
2022/01/26 13:12:09;;;;;;;54.70;32.20;;;;;;;2.73;55.54;100725.40;117183;1186;21857;-63
2022/01/26 13:27:56;;;;;;;57.60;35.00;;;;;;;2.78;55.42;100723.63;117114;1179;22012;-68
2022/01/26 13:36:28;;;;;;;49.20;31.70;;;;;;;2.81;55.33;100724.75;117162;1179;21930;-53
2022/01/26 13:47:32;;;;;;;51.30;32.80;;;;;;;2.75;55.52;100728.23;117110;1186;23479;-66
2022/01/26 13:50:09;;;;;;;60.50;35.90;;;;;;;2.77;55.43;100727.94;117213;1182;22334;-67
2022/01/26 13:52:46;;;;;;;56.10;34.90;;;;;;;2.77;55.43;100729.16;117078;1179;21858;-53
2022/01/26 14:00:25;;;;;;;58.70;35.00;;;;;;;2.75;55.50;100727.36;117192;1186;24172;-52
2022/01/26 14:02:58;;;;;;;;;;;;;;;2.75;55.34;100729.60;117345;1183;23432;-67
2022/01/26 14:05:27;;;;;;;61.80;38.70;;;;;;;2.75;55.43;100734.80;117080;1186;24181;-55
2022/01/26 14:07:56;;;;;;;59.90;38.70;;;;;;;2.75;55.63;100734.48;117236;1185;21920;-53
2022/01/26 14:10:25;;;;;;;60.30;38.80;;;;;;;2.74;55.46;100742.60;117193;1179;21866;-54
2022/01/26 14:12:53;;;;;;;53.10;33.10;;;;;;;2.75;55.41;100741.57;117108;1182;23545;-54
2022/01/26 14:15:26;;;;;;;59.80;37.60;;;;;;;2.76;55.44;100748.88;117221;1176;21860;-65
2022/01/26 14:18:06;;;;;;;51.30;32.00;;;;;;;2.77;55.48;100749.94;117219;1186;22277;-65
2022/01/26 14:23:44;;;;;;;53.50;34.40;;;;;;;2.78;55.47;100754.66;117362;1181;23475;-54